sensor_id;sensor_type;location;lat;lon;timestamp;P1;durP1;ratioP1;P2;durP2;ratioP2
1258;SDS011;619;51.472;6.628;2024-01-30T00:00:59;11.43;;;7.43;;
1258;SDS011;619;51.472;6.628;2024-01-30T00:03:24;11.17;;;6.43;;
1258;SDS011;619;51.472;6.628;2024-01-30T00:05:53;9.70;;;7.27;;
1258;SDS011;619;51.472;6.628;2024-01-30T00:08:18;8.90;;;6.23;;
1258;SDS011;619;51.472;6.628;2024-01-30T00:10:46;8.27;;;6.80;;
1258;SDS011;619;51.472;6.628;2024-01-30T00:13:12;7.00;;;6.23;;
1258;SDS011;619;51.472;6.628;2024-01-30T00:15:39;7.10;;;5.83;;
1258;SDS011;619;51.472;6.628;2024-01-30T00:18:07;7.27;;;6.57;;
1258;SDS011;619;51.472;6.628;2024-01-30T00:20:32;7.00;;;6.07;;
1258;SDS011;619;51.472;6.628;2024-01-30T00:23:03;7.97;;;7.10;;
1258;SDS011;619;51.472;6.628;2024-01-30T00:25:28;7.87;;;6.70;;
1258;SDS011;619;51.472;6.628;2024-01-30T00:27:54;8.33;;;6.67;;
1258;SDS011;619;51.472;6.628;2024-01-30T00:30:22;7.90;;;7.10;;
1258;SDS011;619;51.472;6.628;2024-01-30T00:32:47;8.07;;;6.13;;
1258;SDS011;619;51.472;6.628;2024-01-30T00:35:18;10.10;;;6.90;;
1258;SDS011;619;51.472;6.628;2024-01-30T00:37:46;7.33;;;6.60;;
1258;SDS011;619;51.472;6.628;2024-01-30T00:40:14;9.97;;;7.10;;
1258;SDS011;619;51.472;6.628;2024-01-30T00:42:43;7.60;;;6.67;;
1258;SDS011;619;51.472;6.628;2024-01-30T00:45:14;6.97;;;5.50;;
1258;SDS011;619;51.472;6.628;2024-01-30T00:47:41;7.67;;;6.30;;
1258;SDS011;619;51.472;6.628;2024-01-30T00:50:07;8.60;;;7.17;;
1258;SDS011;619;51.472;6.628;2024-01-30T00:52:35;8.40;;;6.13;;
1258;SDS011;619;51.472;6.628;2024-01-30T00:55:01;6.83;;;6.07;;
1258;SDS011;619;51.472;6.628;2024-01-30T00:57:27;7.60;;;6.43;;
1258;SDS011;619;51.472;6.628;2024-01-30T00:59:53;9.33;;;7.00;;
1258;SDS011;619;51.472;6.628;2024-01-30T01:02:24;11.00;;;7.23;;
1258;SDS011;619;51.472;6.628;2024-01-30T01:04:51;7.93;;;6.23;;
1258;SDS011;619;51.472;6.628;2024-01-30T01:07:19;8.67;;;7.23;;
1258;SDS011;619;51.472;6.628;2024-01-30T01:09:47;8.67;;;7.43;;
1258;SDS011;619;51.472;6.628;2024-01-30T01:12:13;9.53;;;6.90;;
1258;SDS011;619;51.472;6.628;2024-01-30T01:14:41;8.47;;;6.47;;
1258;SDS011;619;51.472;6.628;2024-01-30T01:17:09;8.17;;;6.30;;
1258;SDS011;619;51.472;6.628;2024-01-30T01:19:36;8.47;;;6.50;;
1258;SDS011;619;51.472;6.628;2024-01-30T01:22:02;8.60;;;7.70;;
1258;SDS011;619;51.472;6.628;2024-01-30T01:24:33;9.70;;;7.27;;
1258;SDS011;619;51.472;6.628;2024-01-30T01:27:00;10.50;;;7.80;;
1258;SDS011;619;51.472;6.628;2024-01-30T01:29:26;9.20;;;6.63;;
1258;SDS011;619;51.472;6.628;2024-01-30T01:31:56;10.83;;;7.37;;
1258;SDS011;619;51.472;6.628;2024-01-30T01:34:22;9.90;;;6.93;;
1258;SDS011;619;51.472;6.628;2024-01-30T01:36:51;7.50;;;6.37;;
1258;SDS011;619;51.472;6.628;2024-01-30T01:39:22;7.57;;;6.77;;
1258;SDS011;619;51.472;6.628;2024-01-30T01:41:51;8.20;;;7.27;;
1258;SDS011;619;51.472;6.628;2024-01-30T01:44:19;7.83;;;6.23;;
1258;SDS011;619;51.472;6.628;2024-01-30T01:46:44;8.87;;;6.90;;
1258;SDS011;619;51.472;6.628;2024-01-30T01:49:14;7.90;;;6.43;;
1258;SDS011;619;51.472;6.628;2024-01-30T01:51:42;9.97;;;6.47;;
1258;SDS011;619;51.472;6.628;2024-01-30T01:54:09;9.80;;;6.67;;
1258;SDS011;619;51.472;6.628;2024-01-30T01:56:36;9.90;;;7.60;;
1258;SDS011;619;51.472;6.628;2024-01-30T01:59:07;10.07;;;7.37;;
1258;SDS011;619;51.472;6.628;2024-01-30T02:01:33;8.17;;;6.43;;
1258;SDS011;619;51.472;6.628;2024-01-30T02:04:06;7.87;;;7.00;;
1258;SDS011;619;51.472;6.628;2024-01-30T02:06:32;7.93;;;6.73;;
1258;SDS011;619;51.472;6.628;2024-01-30T02:08:59;10.80;;;6.87;;
1258;SDS011;619;51.472;6.628;2024-01-30T02:11:24;8.30;;;6.93;;
1258;SDS011;619;51.472;6.628;2024-01-30T02:13:53;7.20;;;6.47;;
1258;SDS011;619;51.472;6.628;2024-01-30T02:16:21;9.23;;;7.90;;
1258;SDS011;619;51.472;6.628;2024-01-30T02:18:49;7.83;;;6.93;;
1258;SDS011;619;51.472;6.628;2024-01-30T02:21:17;8.07;;;6.90;;
1258;SDS011;619;51.472;6.628;2024-01-30T02:23:44;10.07;;;7.60;;
1258;SDS011;619;51.472;6.628;2024-01-30T02:26:11;7.97;;;6.87;;
1258;SDS011;619;51.472;6.628;2024-01-30T02:28:37;10.37;;;7.27;;
1258;SDS011;619;51.472;6.628;2024-01-30T02:31:03;9.67;;;6.60;;
1258;SDS011;619;51.472;6.628;2024-01-30T02:33:29;8.80;;;6.73;;
1258;SDS011;619;51.472;6.628;2024-01-30T02:35:55;9.70;;;7.20;;
1258;SDS011;619;51.472;6.628;2024-01-30T02:38:21;9.97;;;6.93;;
1258;SDS011;619;51.472;6.628;2024-01-30T02:40:49;12.03;;;7.93;;
1258;SDS011;619;51.472;6.628;2024-01-30T02:43:15;7.37;;;6.67;;
1258;SDS011;619;51.472;6.628;2024-01-30T02:45:43;7.17;;;6.47;;
1258;SDS011;619;51.472;6.628;2024-01-30T02:48:09;11.73;;;7.20;;
1258;SDS011;619;51.472;6.628;2024-01-30T02:50:37;8.87;;;7.00;;
1258;SDS011;619;51.472;6.628;2024-01-30T02:53:05;9.87;;;7.00;;
1258;SDS011;619;51.472;6.628;2024-01-30T02:55:30;13.07;;;7.27;;
1258;SDS011;619;51.472;6.628;2024-01-30T02:57:56;9.03;;;7.40;;
1258;SDS011;619;51.472;6.628;2024-01-30T03:00:21;9.80;;;6.73;;
1258;SDS011;619;51.472;6.628;2024-01-30T03:02:52;9.37;;;7.10;;
1258;SDS011;619;51.472;6.628;2024-01-30T03:05:17;10.50;;;7.13;;
1258;SDS011;619;51.472;6.628;2024-01-30T03:07:45;7.83;;;7.13;;
1258;SDS011;619;51.472;6.628;2024-01-30T03:10:11;7.53;;;6.50;;
1258;SDS011;619;51.472;6.628;2024-01-30T03:12:41;7.47;;;6.70;;
1258;SDS011;619;51.472;6.628;2024-01-30T03:15:07;11.47;;;8.10;;
1258;SDS011;619;51.472;6.628;2024-01-30T03:17:35;11.47;;;8.37;;
1258;SDS011;619;51.472;6.628;2024-01-30T03:20:03;8.80;;;7.80;;
1258;SDS011;619;51.472;6.628;2024-01-30T03:22:31;9.00;;;6.50;;
1258;SDS011;619;51.472;6.628;2024-01-30T03:24:56;7.83;;;7.07;;
1258;SDS011;619;51.472;6.628;2024-01-30T03:27:22;9.87;;;8.10;;
1258;SDS011;619;51.472;6.628;2024-01-30T03:29:50;10.97;;;8.67;;
1258;SDS011;619;51.472;6.628;2024-01-30T03:32:20;10.30;;;8.13;;
1258;SDS011;619;51.472;6.628;2024-01-30T03:34:46;9.00;;;7.90;;
1258;SDS011;619;51.472;6.628;2024-01-30T03:37:14;9.20;;;7.47;;
1258;SDS011;619;51.472;6.628;2024-01-30T03:39:39;10.80;;;8.40;;
1258;SDS011;619;51.472;6.628;2024-01-30T03:42:07;8.70;;;7.30;;
1258;SDS011;619;51.472;6.628;2024-01-30T03:44:33;14.57;;;9.33;;
1258;SDS011;619;51.472;6.628;2024-01-30T03:47:00;8.77;;;7.40;;
1258;SDS011;619;51.472;6.628;2024-01-30T03:49:26;11.37;;;7.43;;
1258;SDS011;619;51.472;6.628;2024-01-30T03:51:52;11.67;;;6.80;;
1258;SDS011;619;51.472;6.628;2024-01-30T03:54:19;10.00;;;7.77;;
1258;SDS011;619;51.472;6.628;2024-01-30T03:56:47;8.87;;;7.50;;
1258;SDS011;619;51.472;6.628;2024-01-30T03:59:18;7.60;;;6.70;;
1258;SDS011;619;51.472;6.628;2024-01-30T04:01:49;8.50;;;7.60;;
1258;SDS011;619;51.472;6.628;2024-01-30T04:04:16;10.73;;;7.10;;
1258;SDS011;619;51.472;6.628;2024-01-30T04:06:45;10.13;;;7.83;;
1258;SDS011;619;51.472;6.628;2024-01-30T04:09:12;8.70;;;7.60;;
1258;SDS011;619;51.472;6.628;2024-01-30T04:11:38;9.57;;;6.83;;
1258;SDS011;619;51.472;6.628;2024-01-30T04:14:09;10.13;;;7.70;;
1258;SDS011;619;51.472;6.628;2024-01-30T04:16:34;7.70;;;6.90;;
1258;SDS011;619;51.472;6.628;2024-01-30T04:19:01;9.73;;;7.90;;
1258;SDS011;619;51.472;6.628;2024-01-30T04:21:29;13.40;;;6.50;;
1258;SDS011;619;51.472;6.628;2024-01-30T04:23:56;7.60;;;6.83;;
1258;SDS011;619;51.472;6.628;2024-01-30T04:26:24;8.13;;;6.80;;
1258;SDS011;619;51.472;6.628;2024-01-30T04:28:50;11.47;;;8.00;;
1258;SDS011;619;51.472;6.628;2024-01-30T04:31:20;9.97;;;7.33;;
1258;SDS011;619;51.472;6.628;2024-01-30T04:33:48;9.77;;;7.77;;
1258;SDS011;619;51.472;6.628;2024-01-30T04:36:16;7.80;;;6.37;;
1258;SDS011;619;51.472;6.628;2024-01-30T04:38:44;11.37;;;7.77;;
1258;SDS011;619;51.472;6.628;2024-01-30T04:41:12;10.97;;;7.20;;
1258;SDS011;619;51.472;6.628;2024-01-30T04:43:37;11.27;;;6.80;;
1258;SDS011;619;51.472;6.628;2024-01-30T04:46:05;13.33;;;7.50;;
1258;SDS011;619;51.472;6.628;2024-01-30T04:48:33;9.33;;;6.80;;
1258;SDS011;619;51.472;6.628;2024-01-30T04:51:01;9.43;;;7.37;;
1258;SDS011;619;51.472;6.628;2024-01-30T04:53:29;9.67;;;6.53;;
1258;SDS011;619;51.472;6.628;2024-01-30T04:55:55;8.60;;;7.17;;
1258;SDS011;619;51.472;6.628;2024-01-30T04:58:24;11.90;;;8.17;;
1258;SDS011;619;51.472;6.628;2024-01-30T05:00:49;7.30;;;6.60;;
1258;SDS011;619;51.472;6.628;2024-01-30T05:03:17;9.30;;;6.70;;
1258;SDS011;619;51.472;6.628;2024-01-30T05:05:44;7.23;;;6.50;;
1258;SDS011;619;51.472;6.628;2024-01-30T05:08:09;7.67;;;6.20;;
1258;SDS011;619;51.472;6.628;2024-01-30T05:10:40;9.43;;;7.00;;
1258;SDS011;619;51.472;6.628;2024-01-30T05:13:05;8.23;;;6.63;;
1258;SDS011;619;51.472;6.628;2024-01-30T05:15:31;10.43;;;7.43;;
1258;SDS011;619;51.472;6.628;2024-01-30T05:18:01;12.63;;;7.63;;
1258;SDS011;619;51.472;6.628;2024-01-30T05:20:27;8.10;;;7.07;;
1258;SDS011;619;51.472;6.628;2024-01-30T05:22:53;7.90;;;6.80;;
1258;SDS011;619;51.472;6.628;2024-01-30T05:25:19;6.77;;;5.90;;
1258;SDS011;619;51.472;6.628;2024-01-30T05:27:44;9.30;;;8.00;;
1258;SDS011;619;51.472;6.628;2024-01-30T05:30:13;9.60;;;8.60;;
1258;SDS011;619;51.472;6.628;2024-01-30T05:32:38;7.70;;;7.00;;
1258;SDS011;619;51.472;6.628;2024-01-30T05:35:06;10.60;;;6.90;;
1258;SDS011;619;51.472;6.628;2024-01-30T05:37:34;8.60;;;7.07;;
1258;SDS011;619;51.472;6.628;2024-01-30T05:40:00;8.57;;;7.50;;
1258;SDS011;619;51.472;6.628;2024-01-30T05:42:25;10.00;;;6.83;;
1258;SDS011;619;51.472;6.628;2024-01-30T05:44:54;8.03;;;7.23;;
1258;SDS011;619;51.472;6.628;2024-01-30T05:47:20;8.10;;;7.03;;
1258;SDS011;619;51.472;6.628;2024-01-30T05:49:48;8.80;;;7.40;;
1258;SDS011;619;51.472;6.628;2024-01-30T05:52:13;7.40;;;6.63;;
1258;SDS011;619;51.472;6.628;2024-01-30T05:54:40;11.63;;;7.90;;
1258;SDS011;619;51.472;6.628;2024-01-30T05:57:08;11.53;;;7.70;;
1258;SDS011;619;51.472;6.628;2024-01-30T05:59:36;11.40;;;8.27;;
1258;SDS011;619;51.472;6.628;2024-01-30T06:02:02;10.10;;;7.60;;
1258;SDS011;619;51.472;6.628;2024-01-30T06:04:27;9.23;;;7.93;;
1258;SDS011;619;51.472;6.628;2024-01-30T06:06:55;9.93;;;7.47;;
1258;SDS011;619;51.472;6.628;2024-01-30T06:09:21;10.60;;;7.17;;
1258;SDS011;619;51.472;6.628;2024-01-30T06:11:46;10.60;;;9.50;;
1258;SDS011;619;51.472;6.628;2024-01-30T06:14:14;9.47;;;7.70;;
1258;SDS011;619;51.472;6.628;2024-01-30T06:16:40;9.37;;;7.10;;
1258;SDS011;619;51.472;6.628;2024-01-30T06:19:07;7.30;;;6.60;;
1258;SDS011;619;51.472;6.628;2024-01-30T06:21:35;8.43;;;6.70;;
1258;SDS011;619;51.472;6.628;2024-01-30T06:24:02;9.70;;;7.30;;
1258;SDS011;619;51.472;6.628;2024-01-30T06:26:30;10.50;;;7.70;;
1258;SDS011;619;51.472;6.628;2024-01-30T06:28:58;9.90;;;6.90;;
1258;SDS011;619;51.472;6.628;2024-01-30T06:31:23;8.37;;;7.57;;
1258;SDS011;619;51.472;6.628;2024-01-30T06:33:52;7.47;;;6.67;;
1258;SDS011;619;51.472;6.628;2024-01-30T06:36:19;8.03;;;7.20;;
1258;SDS011;619;51.472;6.628;2024-01-30T06:38:45;9.13;;;8.17;;
1258;SDS011;619;51.472;6.628;2024-01-30T06:41:10;7.07;;;6.30;;
1258;SDS011;619;51.472;6.628;2024-01-30T06:43:38;7.90;;;6.47;;
1258;SDS011;619;51.472;6.628;2024-01-30T06:46:10;9.60;;;6.83;;
1258;SDS011;619;51.472;6.628;2024-01-30T06:48:35;9.17;;;7.80;;
1258;SDS011;619;51.472;6.628;2024-01-30T06:51:05;7.67;;;6.83;;
1258;SDS011;619;51.472;6.628;2024-01-30T06:53:31;7.60;;;6.90;;
1258;SDS011;619;51.472;6.628;2024-01-30T06:55:57;9.33;;;7.60;;
1258;SDS011;619;51.472;6.628;2024-01-30T06:58:22;7.43;;;6.70;;
1258;SDS011;619;51.472;6.628;2024-01-30T07:00:48;6.47;;;5.87;;
1258;SDS011;619;51.472;6.628;2024-01-30T07:03:16;10.33;;;7.47;;
1258;SDS011;619;51.472;6.628;2024-01-30T07:05:41;7.80;;;7.00;;
1258;SDS011;619;51.472;6.628;2024-01-30T07:08:07;9.63;;;7.17;;
1258;SDS011;619;51.472;6.628;2024-01-30T07:10:33;9.47;;;8.47;;
1258;SDS011;619;51.472;6.628;2024-01-30T07:13:00;9.97;;;8.97;;
1258;SDS011;619;51.472;6.628;2024-01-30T07:15:26;8.03;;;7.13;;
1258;SDS011;619;51.472;6.628;2024-01-30T07:17:54;9.80;;;7.33;;
1258;SDS011;619;51.472;6.628;2024-01-30T07:20:19;12.17;;;8.27;;
1258;SDS011;619;51.472;6.628;2024-01-30T07:22:45;10.97;;;8.70;;
1258;SDS011;619;51.472;6.628;2024-01-30T07:25:11;8.50;;;6.90;;
1258;SDS011;619;51.472;6.628;2024-01-30T07:27:36;9.40;;;8.40;;
1258;SDS011;619;51.472;6.628;2024-01-30T07:30:02;12.30;;;6.70;;
1258;SDS011;619;51.472;6.628;2024-01-30T07:32:28;11.67;;;8.77;;
1258;SDS011;619;51.472;6.628;2024-01-30T07:34:54;8.17;;;7.17;;
1258;SDS011;619;51.472;6.628;2024-01-30T07:37:19;8.07;;;7.07;;
1258;SDS011;619;51.472;6.628;2024-01-30T07:39:47;10.57;;;8.13;;
1258;SDS011;619;51.472;6.628;2024-01-30T07:42:13;9.87;;;7.60;;
1258;SDS011;619;51.472;6.628;2024-01-30T07:44:38;8.30;;;7.03;;
1258;SDS011;619;51.472;6.628;2024-01-30T07:47:04;9.00;;;7.70;;
1258;SDS011;619;51.472;6.628;2024-01-30T07:49:30;10.10;;;7.90;;
1258;SDS011;619;51.472;6.628;2024-01-30T07:51:58;10.20;;;7.43;;
1258;SDS011;619;51.472;6.628;2024-01-30T07:54:30;9.30;;;6.80;;
1258;SDS011;619;51.472;6.628;2024-01-30T07:57:06;9.00;;;7.93;;
1258;SDS011;619;51.472;6.628;2024-01-30T07:59:31;8.70;;;7.60;;
1258;SDS011;619;51.472;6.628;2024-01-30T08:01:57;8.47;;;7.23;;
1258;SDS011;619;51.472;6.628;2024-01-30T08:04:25;8.50;;;7.33;;
1258;SDS011;619;51.472;6.628;2024-01-30T08:06:50;8.00;;;7.20;;
1258;SDS011;619;51.472;6.628;2024-01-30T08:09:18;8.17;;;6.63;;
1258;SDS011;619;51.472;6.628;2024-01-30T08:11:44;9.60;;;6.60;;
1258;SDS011;619;51.472;6.628;2024-01-30T08:14:12;14.13;;;8.10;;
1258;SDS011;619;51.472;6.628;2024-01-30T08:16:38;10.03;;;7.53;;
1258;SDS011;619;51.472;6.628;2024-01-30T08:19:06;10.17;;;8.23;;
1258;SDS011;619;51.472;6.628;2024-01-30T08:21:32;11.63;;;7.93;;
1258;SDS011;619;51.472;6.628;2024-01-30T08:24:02;8.07;;;7.27;;
1258;SDS011;619;51.472;6.628;2024-01-30T08:26:29;8.37;;;6.93;;
1258;SDS011;619;51.472;6.628;2024-01-30T08:28:57;9.03;;;6.40;;
1258;SDS011;619;51.472;6.628;2024-01-30T08:31:23;12.83;;;6.57;;
1258;SDS011;619;51.472;6.628;2024-01-30T08:33:49;8.70;;;7.90;;
1258;SDS011;619;51.472;6.628;2024-01-30T08:36:15;10.20;;;7.23;;
1258;SDS011;619;51.472;6.628;2024-01-30T08:38:41;13.03;;;8.80;;
1258;SDS011;619;51.472;6.628;2024-01-30T08:41:09;11.57;;;7.30;;
1258;SDS011;619;51.472;6.628;2024-01-30T08:43:37;13.70;;;7.37;;
1258;SDS011;619;51.472;6.628;2024-01-30T08:46:05;9.30;;;7.03;;
1258;SDS011;619;51.472;6.628;2024-01-30T08:48:35;8.13;;;7.33;;
1258;SDS011;619;51.472;6.628;2024-01-30T08:51:04;8.03;;;7.07;;
1258;SDS011;619;51.472;6.628;2024-01-30T08:53:33;9.40;;;7.57;;
1258;SDS011;619;51.472;6.628;2024-01-30T08:56:04;8.17;;;6.37;;
1258;SDS011;619;51.472;6.628;2024-01-30T08:58:31;8.33;;;7.20;;
1258;SDS011;619;51.472;6.628;2024-01-30T09:00:56;10.27;;;6.60;;
1258;SDS011;619;51.472;6.628;2024-01-30T09:03:22;7.00;;;6.30;;
1258;SDS011;619;51.472;6.628;2024-01-30T09:05:52;9.93;;;7.03;;
1258;SDS011;619;51.472;6.628;2024-01-30T09:08:18;11.53;;;7.40;;
1258;SDS011;619;51.472;6.628;2024-01-30T09:10:43;7.00;;;6.10;;
1258;SDS011;619;51.472;6.628;2024-01-30T09:13:12;10.37;;;5.67;;
1258;SDS011;619;51.472;6.628;2024-01-30T09:15:37;6.70;;;6.00;;
1258;SDS011;619;51.472;6.628;2024-01-30T09:18:03;9.53;;;7.07;;
1258;SDS011;619;51.472;6.628;2024-01-30T09:20:29;6.87;;;6.20;;
1258;SDS011;619;51.472;6.628;2024-01-30T09:22:54;7.70;;;5.80;;
1258;SDS011;619;51.472;6.628;2024-01-30T09:25:22;8.10;;;7.10;;
1258;SDS011;619;51.472;6.628;2024-01-30T09:27:48;8.20;;;6.57;;
1258;SDS011;619;51.472;6.628;2024-01-30T09:30:14;9.63;;;6.50;;
1258;SDS011;619;51.472;6.628;2024-01-30T09:32:40;7.87;;;7.10;;
1258;SDS011;619;51.472;6.628;2024-01-30T09:35:05;12.50;;;7.73;;
1258;SDS011;619;51.472;6.628;2024-01-30T09:37:31;8.87;;;7.97;;
1258;SDS011;619;51.472;6.628;2024-01-30T09:39:59;9.60;;;6.70;;
1258;SDS011;619;51.472;6.628;2024-01-30T09:44:58;7.57;;;6.87;;
1258;SDS011;619;51.472;6.628;2024-01-30T09:47:24;6.83;;;5.90;;
1258;SDS011;619;51.472;6.628;2024-01-30T09:49:53;13.03;;;7.00;;
1258;SDS011;619;51.472;6.628;2024-01-30T09:52:20;7.60;;;6.53;;
1258;SDS011;619;51.472;6.628;2024-01-30T09:54:45;8.87;;;6.00;;
1258;SDS011;619;51.472;6.628;2024-01-30T09:57:14;7.20;;;6.40;;
1258;SDS011;619;51.472;6.628;2024-01-30T09:59:41;8.90;;;6.90;;
1258;SDS011;619;51.472;6.628;2024-01-30T10:02:07;9.83;;;7.70;;
1258;SDS011;619;51.472;6.628;2024-01-30T10:04:36;9.50;;;6.90;;
1258;SDS011;619;51.472;6.628;2024-01-30T10:07:06;10.47;;;7.10;;
1258;SDS011;619;51.472;6.628;2024-01-30T10:09:33;7.27;;;6.27;;
1258;SDS011;619;51.472;6.628;2024-01-30T10:12:02;10.60;;;6.60;;
1258;SDS011;619;51.472;6.628;2024-01-30T10:14:28;11.60;;;6.60;;
1258;SDS011;619;51.472;6.628;2024-01-30T10:16:57;9.03;;;7.10;;
1258;SDS011;619;51.472;6.628;2024-01-30T10:19:23;8.30;;;7.00;;
1258;SDS011;619;51.472;6.628;2024-01-30T10:21:49;10.43;;;7.07;;
1258;SDS011;619;51.472;6.628;2024-01-30T10:24:14;7.90;;;7.10;;
1258;SDS011;619;51.472;6.628;2024-01-30T10:26:40;8.20;;;6.50;;
1258;SDS011;619;51.472;6.628;2024-01-30T10:29:12;8.00;;;6.40;;
1258;SDS011;619;51.472;6.628;2024-01-30T10:31:37;7.97;;;5.53;;
1258;SDS011;619;51.472;6.628;2024-01-30T10:34:05;10.97;;;6.20;;
1258;SDS011;619;51.472;6.628;2024-01-30T10:36:31;8.20;;;7.20;;
1258;SDS011;619;51.472;6.628;2024-01-30T10:39:05;9.10;;;6.83;;
1258;SDS011;619;51.472;6.628;2024-01-30T10:41:32;10.23;;;6.23;;
1258;SDS011;619;51.472;6.628;2024-01-30T10:44:09;6.70;;;5.50;;
1258;SDS011;619;51.472;6.628;2024-01-30T10:46:37;10.10;;;7.17;;
1258;SDS011;619;51.472;6.628;2024-01-30T10:49:04;6.87;;;5.37;;
1258;SDS011;619;51.472;6.628;2024-01-30T10:51:31;8.07;;;5.90;;
1258;SDS011;619;51.472;6.628;2024-01-30T10:53:57;7.27;;;6.53;;
1258;SDS011;619;51.472;6.628;2024-01-30T10:56:24;7.33;;;6.73;;
1258;SDS011;619;51.472;6.628;2024-01-30T10:58:50;8.10;;;6.10;;
1258;SDS011;619;51.472;6.628;2024-01-30T11:01:20;6.70;;;5.93;;
1258;SDS011;619;51.472;6.628;2024-01-30T11:03:54;7.97;;;6.57;;
1258;SDS011;619;51.472;6.628;2024-01-30T11:06:25;7.80;;;6.40;;
1258;SDS011;619;51.472;6.628;2024-01-30T11:09:00;8.87;;;7.10;;
1258;SDS011;619;51.472;6.628;2024-01-30T11:14:26;6.73;;;5.50;;
1258;SDS011;619;51.472;6.628;2024-01-30T11:16:56;7.03;;;6.17;;
1258;SDS011;619;51.472;6.628;2024-01-30T11:19:23;8.80;;;6.90;;
1258;SDS011;619;51.472;6.628;2024-01-30T11:21:50;6.43;;;5.47;;
1258;SDS011;619;51.472;6.628;2024-01-30T11:24:19;11.10;;;6.60;;
1258;SDS011;619;51.472;6.628;2024-01-30T11:26:47;7.03;;;6.27;;
1258;SDS011;619;51.472;6.628;2024-01-30T11:29:29;6.00;;;5.40;;
1258;SDS011;619;51.472;6.628;2024-01-30T11:31:57;6.40;;;5.80;;
1258;SDS011;619;51.472;6.628;2024-01-30T11:34:24;7.07;;;5.50;;
1258;SDS011;619;51.472;6.628;2024-01-30T11:36:56;7.30;;;5.60;;
1258;SDS011;619;51.472;6.628;2024-01-30T11:39:24;7.90;;;6.43;;
1258;SDS011;619;51.472;6.628;2024-01-30T11:41:51;9.10;;;6.83;;
1258;SDS011;619;51.472;6.628;2024-01-30T11:44:19;7.40;;;6.13;;
1258;SDS011;619;51.472;6.628;2024-01-30T11:46:46;7.97;;;6.10;;
1258;SDS011;619;51.472;6.628;2024-01-30T11:49:13;7.13;;;6.10;;
1258;SDS011;619;51.472;6.628;2024-01-30T11:51:39;6.13;;;5.53;;
1258;SDS011;619;51.472;6.628;2024-01-30T11:54:07;7.60;;;5.70;;
1258;SDS011;619;51.472;6.628;2024-01-30T11:56:35;9.53;;;6.87;;
1258;SDS011;619;51.472;6.628;2024-01-30T11:59:04;6.80;;;6.00;;
1258;SDS011;619;51.472;6.628;2024-01-30T12:01:31;7.27;;;6.40;;
1258;SDS011;619;51.472;6.628;2024-01-30T12:03:57;6.57;;;5.90;;
1258;SDS011;619;51.472;6.628;2024-01-30T12:06:24;8.97;;;5.60;;
1258;SDS011;619;51.472;6.628;2024-01-30T12:08:58;10.10;;;7.53;;
1258;SDS011;619;51.472;6.628;2024-01-30T12:11:24;8.73;;;6.60;;
1258;SDS011;619;51.472;6.628;2024-01-30T12:13:51;7.97;;;5.97;;
1258;SDS011;619;51.472;6.628;2024-01-30T12:16:18;9.60;;;6.00;;
1258;SDS011;619;51.472;6.628;2024-01-30T12:18:48;6.90;;;6.10;;
1258;SDS011;619;51.472;6.628;2024-01-30T12:21:17;11.07;;;5.20;;
1258;SDS011;619;51.472;6.628;2024-01-30T12:23:45;7.10;;;6.10;;
1258;SDS011;619;51.472;6.628;2024-01-30T12:26:11;6.23;;;5.67;;
1258;SDS011;619;51.472;6.628;2024-01-30T12:28:46;7.60;;;5.43;;
1258;SDS011;619;51.472;6.628;2024-01-30T12:31:13;7.63;;;5.60;;
1258;SDS011;619;51.472;6.628;2024-01-30T12:33:38;11.80;;;6.40;;
1258;SDS011;619;51.472;6.628;2024-01-30T12:36:06;8.27;;;6.20;;
1258;SDS011;619;51.472;6.628;2024-01-30T12:38:32;8.87;;;5.87;;
1258;SDS011;619;51.472;6.628;2024-01-30T12:41:00;7.30;;;5.57;;
1258;SDS011;619;51.472;6.628;2024-01-30T12:43:29;7.50;;;6.23;;
1258;SDS011;619;51.472;6.628;2024-01-30T12:46:04;7.47;;;6.40;;
1258;SDS011;619;51.472;6.628;2024-01-30T12:48:37;7.67;;;5.70;;
1258;SDS011;619;51.472;6.628;2024-01-30T12:51:03;10.00;;;6.23;;
1258;SDS011;619;51.472;6.628;2024-01-30T12:53:29;7.77;;;5.97;;
1258;SDS011;619;51.472;6.628;2024-01-30T12:55:57;6.50;;;5.57;;
1258;SDS011;619;51.472;6.628;2024-01-30T12:58:23;10.20;;;6.77;;
1258;SDS011;619;51.472;6.628;2024-01-30T13:00:48;8.27;;;6.00;;
1258;SDS011;619;51.472;6.628;2024-01-30T13:03:14;9.50;;;6.00;;
1258;SDS011;619;51.472;6.628;2024-01-30T13:05:40;9.23;;;7.17;;
1258;SDS011;619;51.472;6.628;2024-01-30T13:08:06;12.73;;;4.93;;
1258;SDS011;619;51.472;6.628;2024-01-30T13:10:32;5.57;;;4.17;;
1258;SDS011;619;51.472;6.628;2024-01-30T13:12:57;7.43;;;5.30;;
1258;SDS011;619;51.472;6.628;2024-01-30T13:15:26;7.40;;;4.70;;
1258;SDS011;619;51.472;6.628;2024-01-30T13:17:51;5.70;;;5.10;;
1258;SDS011;619;51.472;6.628;2024-01-30T13:20:19;7.77;;;4.90;;
1258;SDS011;619;51.472;6.628;2024-01-30T13:22:47;6.00;;;5.40;;
1258;SDS011;619;51.472;6.628;2024-01-30T13:25:14;6.03;;;5.40;;
1258;SDS011;619;51.472;6.628;2024-01-30T13:27:40;6.00;;;4.70;;
1258;SDS011;619;51.472;6.628;2024-01-30T13:30:08;8.97;;;4.80;;
1258;SDS011;619;51.472;6.628;2024-01-30T13:32:34;14.00;;;6.53;;
1258;SDS011;619;51.472;6.628;2024-01-30T13:35:02;8.17;;;5.07;;
1258;SDS011;619;51.472;6.628;2024-01-30T13:37:31;6.43;;;4.40;;
1258;SDS011;619;51.472;6.628;2024-01-30T13:39:56;11.30;;;5.23;;
1258;SDS011;619;51.472;6.628;2024-01-30T13:42:24;4.80;;;4.30;;
1258;SDS011;619;51.472;6.628;2024-01-30T13:44:52;5.90;;;4.30;;
1258;SDS011;619;51.472;6.628;2024-01-30T13:47:18;5.97;;;4.50;;
1258;SDS011;619;51.472;6.628;2024-01-30T13:49:46;5.00;;;4.50;;
1258;SDS011;619;51.472;6.628;2024-01-30T13:52:12;5.20;;;4.70;;
1258;SDS011;619;51.472;6.628;2024-01-30T13:54:40;5.17;;;4.33;;
1258;SDS011;619;51.472;6.628;2024-01-30T13:57:06;4.90;;;4.47;;
1258;SDS011;619;51.472;6.628;2024-01-30T13:59:35;7.50;;;4.70;;
1258;SDS011;619;51.472;6.628;2024-01-30T14:02:03;11.10;;;4.40;;
1258;SDS011;619;51.472;6.628;2024-01-30T14:04:33;6.23;;;5.40;;
1258;SDS011;619;51.472;6.628;2024-01-30T14:06:59;6.33;;;4.30;;
1258;SDS011;619;51.472;6.628;2024-01-30T14:09:24;8.23;;;5.00;;
1258;SDS011;619;51.472;6.628;2024-01-30T14:11:50;5.50;;;3.90;;
1258;SDS011;619;51.472;6.628;2024-01-30T14:14:18;6.37;;;4.57;;
1258;SDS011;619;51.472;6.628;2024-01-30T14:16:44;5.50;;;3.47;;
1258;SDS011;619;51.472;6.628;2024-01-30T14:19:10;5.20;;;4.70;;
1258;SDS011;619;51.472;6.628;2024-01-30T14:21:35;7.63;;;4.93;;
1258;SDS011;619;51.472;6.628;2024-01-30T14:24:03;7.17;;;4.50;;
1258;SDS011;619;51.472;6.628;2024-01-30T14:26:33;3.53;;;2.73;;
1258;SDS011;619;51.472;6.628;2024-01-30T14:29:01;5.63;;;4.13;;
1258;SDS011;619;51.472;6.628;2024-01-30T14:31:27;3.90;;;3.37;;
1258;SDS011;619;51.472;6.628;2024-01-30T14:33:55;6.03;;;3.20;;
1258;SDS011;619;51.472;6.628;2024-01-30T14:36:24;3.07;;;2.60;;
1258;SDS011;619;51.472;6.628;2024-01-30T14:38:53;3.90;;;3.40;;
1258;SDS011;619;51.472;6.628;2024-01-30T14:41:21;4.00;;;3.33;;
1258;SDS011;619;51.472;6.628;2024-01-30T14:43:47;3.83;;;3.00;;
1258;SDS011;619;51.472;6.628;2024-01-30T14:46:15;4.50;;;2.43;;
1258;SDS011;619;51.472;6.628;2024-01-30T14:48:41;2.90;;;2.60;;
1258;SDS011;619;51.472;6.628;2024-01-30T14:51:09;5.23;;;3.93;;
1258;SDS011;619;51.472;6.628;2024-01-30T14:53:35;5.00;;;2.20;;
1258;SDS011;619;51.472;6.628;2024-01-30T14:56:00;7.73;;;2.93;;
1258;SDS011;619;51.472;6.628;2024-01-30T14:58:27;2.67;;;1.77;;
1258;SDS011;619;51.472;6.628;2024-01-30T15:00:53;7.33;;;4.17;;
1258;SDS011;619;51.472;6.628;2024-01-30T15:03:19;2.60;;;2.40;;
1258;SDS011;619;51.472;6.628;2024-01-30T15:05:44;4.43;;;2.33;;
1258;SDS011;619;51.472;6.628;2024-01-30T15:08:10;3.53;;;1.60;;
1258;SDS011;619;51.472;6.628;2024-01-30T15:10:35;1.93;;;1.53;;
1258;SDS011;619;51.472;6.628;2024-01-30T15:13:03;3.00;;;1.90;;
1258;SDS011;619;51.472;6.628;2024-01-30T15:15:29;2.33;;;1.60;;
1258;SDS011;619;51.472;6.628;2024-01-30T15:17:57;2.23;;;1.70;;
1258;SDS011;619;51.472;6.628;2024-01-30T15:20:30;2.50;;;1.70;;
1258;SDS011;619;51.472;6.628;2024-01-30T15:22:58;2.77;;;1.57;;
1258;SDS011;619;51.472;6.628;2024-01-30T15:25:24;1.80;;;1.30;;
1258;SDS011;619;51.472;6.628;2024-01-30T15:27:50;3.90;;;1.90;;
1258;SDS011;619;51.472;6.628;2024-01-30T15:30:18;2.23;;;1.20;;
1258;SDS011;619;51.472;6.628;2024-01-30T15:32:44;2.23;;;1.20;;